createdAt,value
2022-10-17T00:01:24.331Z,15.40
2022-10-17T00:03:53.105Z,15.36
2022-10-17T00:06:24.096Z,15.35
2022-10-17T00:08:53.018Z,15.34
2022-10-17T00:11:23.280Z,15.33
2022-10-17T00:13:56.021Z,15.31
2022-10-17T00:16:27.469Z,15.28
2022-10-17T00:18:57.169Z,15.27
2022-10-17T00:21:25.965Z,15.24
2022-10-17T00:23:55.037Z,15.22
2022-10-17T00:26:24.215Z,15.19
2022-10-17T00:28:53.562Z,15.16
2022-10-17T00:31:24.490Z,15.13
2022-10-17T00:33:53.556Z,15.08
2022-10-17T00:36:25.507Z,15.03
2022-10-17T00:38:57.783Z,14.98
2022-10-17T00:41:31.076Z,14.90
2022-10-17T00:44:05.632Z,14.91
2022-10-17T00:46:38.299Z,14.85
2022-10-17T00:49:11.180Z,14.84
2022-10-17T00:51:46.984Z,14.78
2022-10-17T00:54:21.588Z,14.72
2022-10-17T00:56:52.145Z,14.66
2022-10-17T00:59:22.321Z,14.52
2022-10-17T01:01:59.898Z,14.37
2022-10-17T01:04:28.719Z,14.22
2022-10-17T01:06:57.593Z,14.10
2022-10-17T01:09:27.276Z,14.01
2022-10-17T01:12:25.993Z,13.88
2022-10-17T01:15:06.920Z,13.73
2022-10-17T01:18:05.976Z,13.64
2022-10-17T01:20:38.466Z,13.58
2022-10-17T01:23:17.984Z,13.61
2022-10-17T01:26:19.302Z,13.68
2022-10-17T01:29:24.900Z,13.76
2022-10-17T01:32:00.369Z,13.83
2022-10-17T01:34:30.262Z,13.88
2022-10-17T01:37:03.075Z,13.91
2022-10-17T01:39:47.743Z,13.94
2022-10-17T01:42:25.663Z,13.92
2022-10-17T01:45:29.833Z,13.85
2022-10-17T01:48:02.546Z,13.71
2022-10-17T01:50:37.476Z,13.60
2022-10-17T01:53:33.753Z,13.45
2022-10-17T01:56:07.181Z,13.32
2022-10-17T01:58:44.257Z,13.29
2022-10-17T02:01:14.956Z,13.33
2022-10-17T02:03:48.084Z,13.37
2022-10-17T02:06:20.408Z,13.42
2022-10-17T02:08:51.504Z,13.47
2022-10-17T02:11:25.022Z,13.40
2022-10-17T02:14:22.244Z,13.35
2022-10-17T02:17:08.567Z,13.27
2022-10-17T02:20:10.667Z,13.22
2022-10-17T02:22:52.457Z,13.15
2022-10-17T02:25:26.346Z,13.08
2022-10-17T02:28:19.169Z,13.01
2022-10-17T02:30:57.511Z,12.91
2022-10-17T02:33:31.784Z,12.83
2022-10-17T02:36:07.236Z,12.78
2022-10-17T02:38:40.772Z,12.76
2022-10-17T02:41:13.606Z,12.76
2022-10-17T02:43:45.237Z,12.73
2022-10-17T02:46:21.049Z,12.71
2022-10-17T02:49:00.530Z,12.73
2022-10-17T02:51:42.362Z,12.80
2022-10-17T02:54:20.171Z,12.87
2022-10-17T02:57:13.364Z,12.92
2022-10-17T02:59:45.704Z,12.95
2022-10-17T03:02:14.513Z,12.98
2022-10-17T03:04:47.158Z,12.98
2022-10-17T03:07:16.194Z,12.96
2022-10-17T03:09:50.267Z,12.94
2022-10-17T03:12:17.967Z,12.92
2022-10-17T03:14:50.605Z,12.85
2022-10-17T03:17:20.893Z,12.91
2022-10-17T03:19:50.141Z,12.91
2022-10-17T03:22:22.580Z,12.91
2022-10-17T03:24:52.567Z,12.85
2022-10-17T03:27:21.941Z,12.78
2022-10-17T03:29:50.345Z,12.72
2022-10-17T03:32:18.709Z,12.67
2022-10-17T03:34:47.857Z,12.52
2022-10-17T03:37:16.754Z,12.47
2022-10-17T03:39:45.090Z,12.42
2022-10-17T03:42:13.012Z,12.43
2022-10-17T03:44:40.999Z,12.45
2022-10-17T03:47:11.926Z,12.47
2022-10-17T03:49:43.154Z,12.52
2022-10-17T03:52:15.182Z,12.58
2022-10-17T03:54:44.201Z,12.64
2022-10-17T03:57:13.005Z,12.70
2022-10-17T03:59:40.747Z,12.75
2022-10-17T04:02:14.137Z,12.79
2022-10-17T04:04:43.246Z,12.81
2022-10-17T04:07:11.083Z,12.84
2022-10-17T04:09:41.272Z,12.86
2022-10-17T04:12:13.378Z,12.88
2022-10-17T04:14:42.206Z,12.90
2022-10-17T04:17:10.950Z,12.91
2022-10-17T04:19:41.793Z,12.91
2022-10-17T04:22:09.883Z,12.91
2022-10-17T04:24:41.373Z,12.91
2022-10-17T04:27:22.472Z,12.88
2022-10-17T04:29:50.557Z,12.83
2022-10-17T04:32:22.552Z,12.79
2022-10-17T04:34:55.655Z,12.78
2022-10-17T04:37:23.970Z,12.77
2022-10-17T04:39:54.397Z,12.71
2022-10-17T04:42:22.534Z,12.60
2022-10-17T04:44:52.158Z,12.48
2022-10-17T04:47:21.296Z,12.40
2022-10-17T04:49:50.199Z,12.29
2022-10-17T04:52:19.250Z,12.18
2022-10-17T04:54:51.672Z,12.10
2022-10-17T04:57:20.189Z,12.03
2022-10-17T05:00:00.506Z,11.97
2022-10-17T05:02:48.134Z,11.91
2022-10-17T05:05:16.174Z,11.86
2022-10-17T05:07:44.761Z,11.84
2022-10-17T05:10:17.633Z,11.89
2022-10-17T05:12:52.028Z,11.97
2022-10-17T05:15:23.040Z,12.05
2022-10-17T05:17:55.133Z,12.15
2022-10-17T05:20:27.119Z,12.22
2022-10-17T05:22:56.197Z,12.22
2022-10-17T05:25:25.506Z,12.22
2022-10-17T05:27:55.467Z,12.24
2022-10-17T05:30:24.596Z,12.28
2022-10-17T05:32:56.017Z,12.29
2022-10-17T05:35:23.989Z,12.31
2022-10-17T05:37:53.849Z,12.38
2022-10-17T05:40:24.987Z,12.46
2022-10-17T05:42:54.624Z,12.57
2022-10-17T05:45:23.810Z,12.65
2022-10-17T05:47:55.509Z,12.64
2022-10-17T05:50:26.092Z,12.64
2022-10-17T05:53:04.995Z,12.59
2022-10-17T05:55:37.971Z,12.53
2022-10-17T05:58:07.313Z,12.47
2022-10-17T06:00:39.095Z,12.43
2022-10-17T06:03:09.849Z,12.45
2022-10-17T06:05:39.989Z,12.47
2022-10-17T06:08:08.048Z,12.50
2022-10-17T06:10:40.430Z,12.51
2022-10-17T06:13:09.378Z,12.54
2022-10-17T06:15:38.455Z,12.60
2022-10-17T06:18:09.698Z,12.67
2022-10-17T06:20:42.626Z,12.72
2022-10-17T06:23:14.412Z,12.80
2022-10-17T06:25:59.832Z,12.90
2022-10-17T06:28:28.059Z,13.02
2022-10-17T06:30:56.389Z,13.11
2022-10-17T06:33:25.604Z,13.23
2022-10-17T06:35:56.379Z,13.36
2022-10-17T06:38:26.774Z,13.51
2022-10-17T06:41:10.187Z,13.66
2022-10-17T06:43:39.737Z,13.80
2022-10-17T06:46:26.904Z,13.94
2022-10-17T06:48:58.277Z,14.06
2022-10-17T06:51:32.281Z,14.20
2022-10-17T06:54:03.185Z,14.29
2022-10-17T06:56:49.691Z,14.34
2022-10-17T06:59:37.043Z,14.46
2022-10-17T07:02:13.783Z,14.61
2022-10-17T07:04:42.815Z,14.78
2022-10-17T07:07:15.696Z,15.15
2022-10-17T07:09:43.642Z,15.75
2022-10-17T07:12:12.880Z,16.49
2022-10-17T07:14:47.227Z,17.33
2022-10-17T07:17:19.672Z,18.22
2022-10-17T07:19:48.737Z,19.05
2022-10-17T07:22:17.810Z,19.81
2022-10-17T07:27:39.559Z,21.24
2022-10-17T07:30:10.381Z,21.84
2022-10-17T07:32:49.688Z,22.49
2022-10-17T07:35:18.445Z,23.08
2022-10-17T07:38:51.582Z,23.71
2022-10-17T07:41:21.945Z,24.21
2022-10-17T07:43:56.630Z,24.62
2022-10-17T07:46:34.595Z,24.90
2022-10-17T07:49:13.368Z,24.81
2022-10-17T07:51:53.245Z,24.93
2022-10-17T07:54:23.372Z,25.20
2022-10-17T07:56:51.438Z,25.42
2022-10-17T07:59:20.740Z,25.62
2022-10-17T08:01:51.573Z,25.69
2022-10-17T08:04:19.791Z,25.82
2022-10-17T08:06:50.842Z,25.96
2022-10-17T08:09:24.347Z,26.08
2022-10-17T08:11:52.737Z,26.21
2022-10-17T08:14:25.282Z,26.35
2022-10-17T08:16:58.111Z,26.51
2022-10-17T08:19:32.189Z,26.85
2022-10-17T08:22:05.504Z,27.28
2022-10-17T08:24:33.663Z,27.70
2022-10-17T08:27:04.120Z,27.93
2022-10-17T08:29:33.232Z,28.08
2022-10-17T08:32:05.517Z,28.26
2022-10-17T08:34:37.588Z,28.40
2022-10-17T08:37:05.798Z,28.38
2022-10-17T08:39:34.137Z,28.57
2022-10-17T08:42:06.101Z,28.90
2022-10-17T08:45:11.175Z,28.99
2022-10-17T08:47:43.592Z,29.17
2022-10-17T08:50:24.334Z,29.47
2022-10-17T08:53:02.881Z,29.79
2022-10-17T08:55:42.943Z,29.96
2022-10-17T08:58:19.175Z,29.85
2022-10-17T09:01:10.401Z,29.85
2022-10-17T09:04:08.017Z,29.92
2022-10-17T09:06:48.879Z,29.79
2022-10-17T09:09:20.291Z,29.54
2022-10-17T09:12:31.758Z,29.51
2022-10-17T09:15:21.898Z,29.40
2022-10-17T09:18:17.608Z,29.15
2022-10-17T09:20:54.433Z,29.11
2022-10-17T09:23:27.547Z,29.40
2022-10-17T09:25:59.282Z,29.70
2022-10-17T09:28:38.727Z,29.95
2022-10-17T09:31:24.933Z,30.36
2022-10-17T09:33:55.475Z,30.66
2022-10-17T09:36:29.557Z,30.78
2022-10-17T09:39:03.180Z,30.94
2022-10-17T09:41:47.253Z,31.21
2022-10-17T09:44:22.994Z,31.35
2022-10-17T09:47:13.476Z,31.46
2022-10-17T09:49:44.437Z,31.50
2022-10-17T09:52:20.883Z,31.55
2022-10-17T09:55:00.654Z,31.59
2022-10-17T09:58:01.325Z,31.73
2022-10-17T10:00:34.732Z,31.77
2022-10-17T10:03:24.949Z,31.86
2022-10-17T10:06:12.518Z,31.90
2022-10-17T10:08:50.112Z,32.00
2022-10-17T10:11:25.791Z,32.06
2022-10-17T10:14:13.728Z,32.04
2022-10-17T10:16:44.080Z,32.29
2022-10-17T10:19:30.358Z,32.46
2022-10-17T10:22:07.078Z,32.79
2022-10-17T10:24:35.311Z,33.17
2022-10-17T10:27:04.316Z,33.48
2022-10-17T10:29:36.829Z,33.79
2022-10-17T10:32:28.333Z,33.86
2022-10-17T10:35:15.504Z,33.91
2022-10-17T10:37:50.122Z,33.73
2022-10-17T10:40:25.182Z,33.61
2022-10-17T10:42:59.220Z,33.72
2022-10-17T10:45:47.863Z,34.08
2022-10-17T10:48:25.384Z,34.47
2022-10-17T10:50:56.204Z,34.86
2022-10-17T10:53:45.590Z,35.07
2022-10-17T10:56:29.110Z,35.44
2022-10-17T10:59:09.555Z,35.87
2022-10-17T11:02:12.204Z,36.18
2022-10-17T11:04:42.524Z,36.15
2022-10-17T11:07:19.438Z,35.96
2022-10-17T11:10:11.497Z,35.74
2022-10-17T11:13:19.410Z,35.57
2022-10-17T11:16:21.794Z,35.58
2022-10-17T11:19:19.858Z,35.33
2022-10-17T11:22:05.925Z,34.88
2022-10-17T11:24:51.901Z,34.83
2022-10-17T11:27:20.279Z,34.91
2022-10-17T11:29:51.821Z,35.00
2022-10-17T11:33:12.581Z,35.17
2022-10-17T11:35:52.293Z,35.62
2022-10-17T11:38:43.091Z,36.09
2022-10-17T11:41:35.474Z,36.38
2022-10-17T11:44:22.384Z,36.46
2022-10-17T11:47:17.151Z,36.42
2022-10-17T11:49:53.242Z,36.32
2022-10-17T11:52:55.965Z,36.42
2022-10-17T11:55:34.931Z,36.34
2022-10-17T11:58:06.824Z,36.26
2022-10-17T12:01:07.851Z,36.12
2022-10-17T12:04:25.221Z,36.21
2022-10-17T12:07:14.540Z,36.27
2022-10-17T12:10:32.668Z,36.29
2022-10-17T12:17:32.999Z,36.56
2022-10-17T12:20:28.308Z,36.59
2022-10-17T12:23:15.065Z,36.41
2022-10-17T12:26:01.558Z,36.27
2022-10-17T12:29:29.379Z,36.45
2022-10-17T12:32:17.761Z,36.62
2022-10-17T12:35:28.660Z,36.33
2022-10-17T12:38:21.005Z,36.10
2022-10-17T12:40:59.751Z,36.01
2022-10-17T12:43:54.510Z,36.01
2022-10-17T12:46:53.680Z,36.06
2022-10-17T12:49:40.409Z,36.21
2022-10-17T12:52:11.465Z,36.07
2022-10-17T12:55:22.951Z,36.02
2022-10-17T12:57:59.204Z,36.04
2022-10-17T13:01:11.549Z,36.13
2022-10-17T13:03:52.063Z,36.48
2022-10-17T13:06:28.784Z,36.71
2022-10-17T13:09:08.905Z,36.76
2022-10-17T13:11:45.262Z,36.51
2022-10-17T13:14:16.769Z,36.08
2022-10-17T13:17:02.873Z,35.82
2022-10-17T13:19:45.947Z,35.70
2022-10-17T13:22:40.484Z,35.59
2022-10-17T13:25:24.491Z,35.49
2022-10-17T13:28:13.479Z,35.41
2022-10-17T13:30:49.830Z,35.45
2022-10-17T13:33:44.733Z,35.17
2022-10-17T13:36:22.517Z,34.81
2022-10-17T13:38:51.049Z,34.80
2022-10-17T13:41:35.740Z,34.67
2022-10-17T13:44:14.257Z,34.38
2022-10-17T13:46:45.968Z,34.19
2022-10-17T13:49:28.235Z,34.01
2022-10-17T13:52:12.091Z,33.98
2022-10-17T13:54:49.175Z,34.08
2022-10-17T13:57:32.310Z,34.08
2022-10-17T14:00:21.980Z,33.87
2022-10-17T14:02:50.300Z,33.66
2022-10-17T14:05:28.111Z,33.72
2022-10-17T14:08:11.969Z,33.89
2022-10-17T14:10:44.924Z,33.91
2022-10-17T14:13:27.020Z,33.81
2022-10-17T14:16:09.813Z,33.65
2022-10-17T14:18:42.207Z,33.63
2022-10-17T14:21:37.259Z,33.47
2022-10-17T14:24:32.433Z,33.10
2022-10-17T14:27:56.015Z,32.69
2022-10-17T14:31:35.698Z,32.34
2022-10-17T14:34:38.754Z,31.86
2022-10-17T14:37:43.752Z,31.42
2022-10-17T14:44:27.663Z,30.84
2022-10-17T14:47:41.830Z,30.52
2022-10-17T14:51:26.353Z,30.01
2022-10-17T14:54:40.876Z,29.13
2022-10-17T14:58:19.966Z,28.19
2022-10-17T15:05:59.083Z,26.31
2022-10-17T15:08:55.102Z,25.89
2022-10-17T15:15:05.377Z,24.96
2022-10-17T15:21:55.220Z,24.47
2022-10-17T15:30:29.982Z,23.87
2022-10-17T15:33:19.711Z,23.75
2022-10-17T15:36:15.644Z,23.63
2022-10-17T15:39:48.991Z,23.45
2022-10-17T15:42:58.619Z,23.31
2022-10-17T15:46:30.913Z,23.20
2022-10-17T15:52:28.489Z,22.96
2022-10-17T15:55:12.974Z,22.85
2022-10-17T16:02:47.026Z,22.63
2022-10-17T16:09:30.889Z,22.19
2022-10-17T16:12:29.655Z,22.08
2022-10-17T16:18:58.707Z,21.87
2022-10-17T16:21:51.870Z,21.74
2022-10-17T16:25:42.176Z,21.65
2022-10-17T16:48:10.122Z,21.10
2022-10-17T16:50:32.562Z,21.17
2022-10-17T17:13:51.658Z,20.44
2022-10-17T17:55:22.534Z,19.86
2022-10-17T18:05:29.270Z,19.67
2022-10-17T18:05:37.146Z,19.73
2022-10-17T18:11:31.200Z,19.39
2022-10-17T18:26:48.871Z,19.34
2022-10-17T18:39:57.540Z,19.20
2022-10-17T18:51:31.623Z,19.01
2022-10-17T18:59:20.962Z,18.95
2022-10-17T19:21:42.423Z,18.65
2022-10-17T19:24:45.109Z,18.42
2022-10-17T19:27:50.588Z,18.35
2022-10-17T19:30:58.657Z,18.28
2022-10-17T19:34:22.833Z,18.18
2022-10-17T19:37:42.873Z,18.10
2022-10-17T19:43:43.975Z,18.01
2022-10-17T19:47:21.873Z,17.95
2022-10-17T19:52:56.241Z,17.82
2022-10-17T19:55:33.456Z,17.77
2022-10-17T19:58:20.232Z,17.63
2022-10-17T20:08:16.699Z,17.63
2022-10-17T20:10:44.611Z,17.59
2022-10-17T20:13:19.199Z,17.55
2022-10-17T20:15:56.976Z,17.47
2022-10-17T20:18:32.993Z,17.40
2022-10-17T20:21:09.155Z,17.32
2022-10-17T20:23:38.569Z,17.26
2022-10-17T20:26:25.849Z,17.21
2022-10-17T20:29:02.511Z,17.15
2022-10-17T20:31:31.446Z,17.10
2022-10-17T20:34:04.402Z,17.05
2022-10-17T20:36:37.568Z,16.99
2022-10-17T20:39:07.340Z,16.93
2022-10-17T20:41:35.330Z,16.87
2022-10-17T20:44:04.703Z,16.81
2022-10-17T20:46:37.264Z,16.75
2022-10-17T20:49:15.279Z,16.70
2022-10-17T20:51:45.124Z,16.64
2022-10-17T20:54:19.034Z,16.58
2022-10-17T20:56:50.406Z,16.52
2022-10-17T20:59:20.345Z,16.46
2022-10-17T21:01:49.219Z,16.42
2022-10-17T21:07:06.267Z,16.30
2022-10-17T21:09:34.236Z,16.27
2022-10-17T21:12:08.144Z,16.21
2022-10-17T21:15:09.143Z,16.17
2022-10-17T21:17:39.109Z,16.10
2022-10-17T21:20:08.461Z,16.03
2022-10-17T21:22:36.445Z,15.98
2022-10-17T21:25:05.822Z,15.93
2022-10-17T21:27:33.679Z,15.87
2022-10-17T21:30:02.629Z,15.80
2022-10-17T21:32:47.190Z,15.74
2022-10-17T21:35:19.761Z,15.71
2022-10-17T21:37:48.792Z,15.68
2022-10-17T21:40:17.638Z,15.65
2022-10-17T21:42:45.360Z,15.63
2022-10-17T21:45:24.863Z,15.60
2022-10-17T21:48:12.282Z,15.58
2022-10-17T21:50:42.578Z,15.58
2022-10-17T21:53:15.175Z,15.57
2022-10-17T21:55:45.030Z,15.55
2022-10-17T21:58:12.885Z,15.53
2022-10-17T22:00:40.658Z,15.51
2022-10-17T22:03:09.624Z,15.50
2022-10-17T22:05:42.063Z,15.49
2022-10-17T22:08:19.066Z,15.50
2022-10-17T22:10:58.159Z,15.52
2022-10-17T22:13:27.242Z,15.51
2022-10-17T22:16:01.286Z,15.50
2022-10-17T22:18:31.209Z,15.44
2022-10-17T22:21:09.854Z,15.36
2022-10-17T22:23:38.554Z,15.27
2022-10-17T22:26:12.135Z,15.19
2022-10-17T22:28:42.056Z,15.11
2022-10-17T22:31:15.093Z,15.06
2022-10-17T22:33:43.013Z,15.00
2022-10-17T22:36:18.204Z,14.97
2022-10-17T22:38:48.552Z,14.95
2022-10-17T22:41:22.214Z,14.94
2022-10-17T22:43:54.037Z,14.92
2022-10-17T22:46:22.708Z,14.91
2022-10-17T22:48:52.523Z,14.91
2022-10-17T22:51:26.573Z,14.89
2022-10-17T22:53:55.431Z,14.87
2022-10-17T22:56:23.731Z,14.85
2022-10-17T22:58:53.549Z,14.84
2022-10-17T23:01:28.094Z,14.81
2022-10-17T23:04:38.950Z,14.78
2022-10-17T23:07:11.254Z,14.72
2022-10-17T23:09:45.033Z,14.69
2022-10-17T23:12:17.313Z,14.65
2022-10-17T23:14:46.389Z,14.61
2022-10-17T23:17:15.185Z,14.58
2022-10-17T23:19:52.903Z,14.56
2022-10-17T23:22:24.422Z,14.54
2022-10-17T23:24:57.014Z,14.52
2022-10-17T23:27:25.826Z,14.50
2022-10-17T23:29:53.717Z,14.48
2022-10-17T23:32:26.071Z,14.48
2022-10-17T23:35:02.057Z,14.46
2022-10-17T23:37:30.105Z,14.44
2022-10-17T23:39:59.021Z,14.42
2022-10-17T23:42:30.126Z,14.40
2022-10-17T23:45:04.574Z,14.37
2022-10-17T23:47:33.706Z,14.34
2022-10-17T23:50:02.743Z,14.32
2022-10-17T23:52:30.651Z,14.29
2022-10-17T23:54:59.242Z,14.25
2022-10-17T23:57:29.308Z,14.23
2022-10-17T23:59:58.470Z,14.21
